Aérodrome :
LOGIN :

S'inscrire | Disclaimer

   EN    FR    IT 

 










Légende :    VFR   VFR Marginal   IFR   IFR Intensif   IFR Très Intensif
Visi : 
Plafond : 
>= 8 km
>= 3000ft
5 à 8 km
1000 à 3000 ft
1500m à 5 km
500 à 1000 ft
800 à 1500m
200 à 500 ft
< 800m
< 200 ft
Symboles :   Orages  Brouillard  Fortes neiges  Fortes précipitations  Vent > 20 kt
SIGMETs :   Divers  Orages  Givrage  Turbulence  Onde Orograph.  Cendres Volcan.






- Altitude de l'aérodrome : 125 ft
- Code IATA : MGL


EDLN - Mönchengladbach

DERNIER METAR :
  • 250620Z 22006KT 180V240 CAVOK 09/06 Q0997

METARs EXPIRÉS :
  • 250550Z 20006KT 180V240 CAVOK 09/07 Q0997
  • 250520Z AUTO 22006KT 180V260 9999 // ///////// 09/07 Q0996
  • 250450Z AUTO 22007KT 170V250 9999 // ///////// 10/07 Q0996
  • 250420Z AUTO 22006KT 180V260 9999 // ///////// 10/07 Q0997
  • 250350Z AUTO 21006KT 9999 // ///////// 10/08 Q0996

TAF TAF EDLN
Valide du 25 à 07h jusqu'au 25 à 15h UTC


250620Z 2507/2515 20009KT 9999 SCT030



MET'MAP, la Météo Aéronautique d'un coup d'oeil ! - Copyright ORBIFLY Décembre 2007 - Disclaimer

ORBIFLY MET'MAP TEAM :

Programmation & Développement : Alexandra Zaïnal
Sur une idée originale de : Baudouin d'Aumeries
Assistance à la programmation : Marc-Olivier Méhu
Soutien technique & logistique : Manuel Goepfert

Contact : metmap@orbifly.com




SOURCES & CREDITS :

   NOAA